KFRI

Marshall AAF Airport

Fort Riley(Junction City), Kansas, USA
METAR KFRI 230856Z AUTO 16012KT 10SM FEW220 23/18 A2999 RMK AO2 SLP144 T02250184 53001 $
Observed Flight Rules
May-23 @ 08:56 UTC (10 minutes ago) Visual Flight Rules
Wind Visibility Clouds
160° at 12 knots 10 miles
  • Few at 22,000' AGL
Temperatures Readings
Current 23°C / 73°F
Dewpoint 18°C / 64°F
Humidity 74%
Altimeter 29.99" Hg
Pressure 1014.4 hPa
Elevation 325
METAR KFRI 230856Z AUTO 16012KT 10SM FEW220 23/18 A2999 RMK AO2 SLP144 T02250184 53001 $
Observed Flight Rules
May-23 @ 08:56 UTC
(10 minutes ago)
VFR
Wind Visibility
160° at 12 knots 10 miles
Clouds
  • Few at 22,000' AGL
Temperature Dewpoint
23°C / 73°F 18°C / 64°F
Humidity Altimeter Pressure
74% 29.99" Hg 1014.4 hPa